createdAt,value
2022-11-29T00:04:30.931Z,11.01
2022-11-29T00:09:32.386Z,11.11
2022-11-29T00:14:33.839Z,11.21
2022-11-29T00:19:35.451Z,11.04
2022-11-29T00:24:36.963Z,10.81
2022-11-29T00:29:38.406Z,10.81
2022-11-29T00:34:39.940Z,11.14
2022-11-29T00:39:41.394Z,11.60
2022-11-29T00:44:43.123Z,11.59
2022-11-29T00:49:44.728Z,11.25
2022-11-29T00:54:46.455Z,11.11
2022-11-29T00:59:48.174Z,11.10
2022-11-29T01:04:49.628Z,11.56
2022-11-29T01:09:51.151Z,11.21
2022-11-29T01:14:52.595Z,11.55
2022-11-29T01:19:54.055Z,11.78
2022-11-29T01:24:55.519Z,11.43
2022-11-29T01:29:56.968Z,11.37
2022-11-29T01:34:58.418Z,11.53
2022-11-29T01:39:59.882Z,11.09
2022-11-29T01:45:24.499Z,11.36
2022-11-29T01:50:26.012Z,11.74
2022-11-29T01:55:27.483Z,11.83
2022-11-29T02:00:29.574Z,11.55
2022-11-29T02:05:31.028Z,11.82
2022-11-29T02:11:15.133Z,11.90
2022-11-29T02:16:59.393Z,11.78
2022-11-29T02:22:05.507Z,11.75
2022-11-29T02:27:24.744Z,11.40
2022-11-29T02:32:50.636Z,11.60
2022-11-29T02:38:10.516Z,11.53
2022-11-29T02:43:44.339Z,11.98
2022-11-29T02:49:00.881Z,11.81
2022-11-29T02:54:20.367Z,11.78
2022-11-29T02:59:32.269Z,11.61
2022-11-29T03:05:11.000Z,11.71
2022-11-29T03:10:25.983Z,11.45
2022-11-29T03:15:28.701Z,11.98
2022-11-29T03:20:56.700Z,11.82
2022-11-29T03:26:12.046Z,11.88
2022-11-29T03:31:21.001Z,11.73
2022-11-29T03:36:34.548Z,11.67
2022-11-29T03:41:45.365Z,11.91
2022-11-29T03:46:58.565Z,11.72
2022-11-29T03:52:24.914Z,11.68
2022-11-29T03:58:01.582Z,11.91
2022-11-29T04:03:26.159Z,11.52
2022-11-29T04:08:48.430Z,11.90
2022-11-29T04:14:24.403Z,11.33
2022-11-29T04:19:37.831Z,11.80
2022-11-29T04:24:51.543Z,11.85
2022-11-29T04:30:23.985Z,11.45
2022-11-29T04:36:03.269Z,11.57
2022-11-29T04:41:31.167Z,11.43
2022-11-29T04:47:02.177Z,11.69
2022-11-29T04:52:32.752Z,11.16
2022-11-29T04:57:57.717Z,11.77
2022-11-29T05:03:14.658Z,11.41
2022-11-29T05:08:39.976Z,11.59
2022-11-29T05:13:58.243Z,11.60
2022-11-29T05:19:18.307Z,11.46
2022-11-29T05:24:45.513Z,11.67
2022-11-29T05:30:01.421Z,11.64
2022-11-29T05:35:48.072Z,11.57
2022-11-29T05:40:58.831Z,11.39
2022-11-29T05:46:22.693Z,11.66
2022-11-29T05:51:45.984Z,11.72
2022-11-29T05:57:06.275Z,11.03
2022-11-29T06:02:28.330Z,11.48
2022-11-29T06:07:51.637Z,11.70
2022-11-29T06:13:04.125Z,11.21
2022-11-29T06:18:40.768Z,11.37
2022-11-29T06:24:00.820Z,11.54
2022-11-29T06:29:23.999Z,11.65
2022-11-29T06:34:33.924Z,11.54
2022-11-29T06:39:35.622Z,11.64
2022-11-29T06:44:37.294Z,11.68
2022-11-29T06:50:10.616Z,11.53
2022-11-29T06:55:22.538Z,11.22
2022-11-29T07:00:28.445Z,11.37
2022-11-29T07:05:33.908Z,11.30
2022-11-29T07:10:37.300Z,11.32
2022-11-29T07:15:39.351Z,11.10
2022-11-29T07:20:43.731Z,11.01
2022-11-29T07:26:03.398Z,10.92
2022-11-29T07:31:20.080Z,10.97
2022-11-29T07:36:40.773Z,10.88
2022-11-29T07:41:52.612Z,10.71
2022-11-29T07:46:54.090Z,11.04
2022-11-29T07:51:55.691Z,11.03
2022-11-29T07:56:57.152Z,10.91
2022-11-29T08:01:59.232Z,11.28
2022-11-29T08:07:00.809Z,10.93
2022-11-29T08:12:02.269Z,10.83
2022-11-29T08:17:04.027Z,10.72
2022-11-29T08:22:05.492Z,10.82
2022-11-29T08:27:06.956Z,11.04
2022-11-29T08:32:09.052Z,11.01
2022-11-29T08:37:10.514Z,10.82
2022-11-29T08:42:11.967Z,10.93
2022-11-29T08:47:32.043Z,11.03
2022-11-29T08:52:53.495Z,10.93
2022-11-29T08:57:55.434Z,11.00
2022-11-29T09:03:16.849Z,10.91
2022-11-29T09:08:18.331Z,11.23
2022-11-29T09:13:19.803Z,11.01
2022-11-29T09:18:22.620Z,11.24
2022-11-29T09:23:24.458Z,11.07
2022-11-29T09:28:25.935Z,11.11
2022-11-29T09:33:27.395Z,11.15
2022-11-29T09:38:28.956Z,10.94
2022-11-29T09:43:38.166Z,11.05
2022-11-29T09:49:04.654Z,11.10
2022-11-29T09:54:44.186Z,10.91
2022-11-29T09:59:48.216Z,11.03
2022-11-29T10:04:53.276Z,11.05
2022-11-29T10:10:04.122Z,11.08
2022-11-29T10:15:14.032Z,11.13
2022-11-29T10:20:39.731Z,11.32
2022-11-29T10:25:53.111Z,11.27
2022-11-29T10:30:55.409Z,11.22
2022-11-29T10:35:58.985Z,11.20
2022-11-29T10:41:12.192Z,10.99
2022-11-29T10:46:26.068Z,11.20
2022-11-29T10:51:27.619Z,11.21
2022-11-29T10:56:31.169Z,11.36
2022-11-29T11:01:34.206Z,11.38
2022-11-29T11:06:46.880Z,11.35
2022-11-29T11:11:52.906Z,11.13
2022-11-29T11:16:54.569Z,11.36
2022-11-29T11:21:57.229Z,10.98
2022-11-29T11:26:58.828Z,11.23
2022-11-29T11:32:00.300Z,11.20
2022-11-29T11:37:20.458Z,11.01
2022-11-29T11:42:39.470Z,11.01
2022-11-29T11:47:49.151Z,11.03
2022-11-29T11:52:54.782Z,11.46
2022-11-29T11:58:12.057Z,11.22
2022-11-29T12:03:51.010Z,11.47
2022-11-29T12:09:09.023Z,11.42
2022-11-29T12:14:15.708Z,11.44
2022-11-29T12:19:20.507Z,11.51
2022-11-29T12:24:28.398Z,11.62
2022-11-29T12:29:31.699Z,11.43
2022-11-29T12:34:48.562Z,11.47
2022-11-29T12:39:57.297Z,11.54
2022-11-29T12:45:04.781Z,11.72
2022-11-29T12:50:27.493Z,11.44
2022-11-29T12:55:30.613Z,11.78
2022-11-29T13:00:36.002Z,11.72
2022-11-29T13:05:58.627Z,11.80
2022-11-29T13:11:11.635Z,11.60
2022-11-29T13:16:22.917Z,11.72
2022-11-29T13:21:37.274Z,11.77
2022-11-29T13:26:39.284Z,11.43
2022-11-29T13:31:40.799Z,11.45
2022-11-29T13:37:00.801Z,11.43
2022-11-29T13:42:45.327Z,11.46
2022-11-29T13:47:54.391Z,11.60
2022-11-29T13:53:03.497Z,11.70
2022-11-29T13:58:16.953Z,11.33
2022-11-29T14:03:23.455Z,11.59
2022-11-29T14:09:02.414Z,11.64
2022-11-29T14:14:10.042Z,11.49
2022-11-29T14:19:11.921Z,11.54
2022-11-29T14:24:31.869Z,11.41
2022-11-29T14:29:48.722Z,11.61
2022-11-29T14:34:55.192Z,11.66
2022-11-29T14:39:57.852Z,11.56
2022-11-29T14:45:01.303Z,11.32
2022-11-29T14:50:06.474Z,11.11
2022-11-29T14:55:16.789Z,11.67
2022-11-29T15:00:26.344Z,11.72
2022-11-29T15:05:34.303Z,11.57
2022-11-29T15:10:41.248Z,11.70
2022-11-29T15:15:46.646Z,11.61
2022-11-29T15:21:21.785Z,11.46
2022-11-29T15:26:23.443Z,11.57
2022-11-29T15:31:24.943Z,11.62
2022-11-29T15:36:26.464Z,11.37
2022-11-29T15:41:29.580Z,11.64
2022-11-29T15:46:31.496Z,11.64
2022-11-29T15:51:36.404Z,11.61
2022-11-29T15:56:48.958Z,11.69
2022-11-29T16:01:50.489Z,11.87
2022-11-29T16:06:51.984Z,11.85
2022-11-29T16:11:53.444Z,11.91
2022-11-29T16:16:56.608Z,11.80
2022-11-29T16:21:58.425Z,11.81
2022-11-29T16:27:00.153Z,11.76
2022-11-29T16:32:13.162Z,11.40
2022-11-29T16:37:18.008Z,11.73
2022-11-29T16:42:47.915Z,11.88
2022-11-29T16:47:58.678Z,11.80
2022-11-29T16:53:37.741Z,11.57
2022-11-29T16:59:16.626Z,11.55
2022-11-29T17:04:00.775Z,11.61
2022-11-29T17:09:02.267Z,11.69
2022-11-29T17:14:03.728Z,11.67
2022-11-29T17:19:05.224Z,11.88
2022-11-29T17:24:09.650Z,11.60
2022-11-29T17:29:11.735Z,11.71
2022-11-29T17:34:13.216Z,11.65
2022-11-29T17:39:15.657Z,11.67
2022-11-29T17:44:17.180Z,11.80
2022-11-29T17:49:18.815Z,11.60
2022-11-29T17:54:21.250Z,11.71
2022-11-29T17:59:22.789Z,11.52
2022-11-29T18:04:24.326Z,11.29
2022-11-29T18:09:25.818Z,11.54
2022-11-29T18:14:30.897Z,11.62
2022-11-29T18:19:32.362Z,11.46
2022-11-29T18:24:33.819Z,11.62
2022-11-29T18:29:39.157Z,11.67
2022-11-29T18:34:40.892Z,11.40
2022-11-29T18:39:42.372Z,11.38
2022-11-29T18:44:44.073Z,11.48
2022-11-29T18:49:45.859Z,11.39
2022-11-29T18:54:47.911Z,11.60
2022-11-29T18:59:49.524Z,11.21
2022-11-29T19:04:50.980Z,11.38
2022-11-29T19:09:52.448Z,11.25
2022-11-29T19:14:54.083Z,11.28
2022-11-29T19:19:55.656Z,11.37
2022-11-29T19:24:57.153Z,11.61
2022-11-29T19:29:58.608Z,11.31
2022-11-29T19:35:00.071Z,11.40
2022-11-29T19:40:01.538Z,11.35
2022-11-29T19:45:16.987Z,11.42
2022-11-29T19:50:19.066Z,11.51
2022-11-29T19:55:20.663Z,11.62
2022-11-29T20:00:22.415Z,11.36
2022-11-29T20:05:23.946Z,11.54
2022-11-29T20:10:25.557Z,11.53
2022-11-29T20:15:27.041Z,11.51
2022-11-29T20:20:29.487Z,11.23
2022-11-29T20:25:30.973Z,11.53
2022-11-29T20:30:33.440Z,11.27
2022-11-29T20:35:35.192Z,11.55
2022-11-29T20:41:12.711Z,11.45
2022-11-29T20:46:14.286Z,11.52
2022-11-29T20:51:15.787Z,11.53
2022-11-29T20:56:17.264Z,11.51
2022-11-29T21:01:18.776Z,11.37
2022-11-29T21:06:20.277Z,11.61
2022-11-29T21:11:22.123Z,11.56
2022-11-29T21:16:30.776Z,11.70
2022-11-29T21:21:44.565Z,11.65
2022-11-29T21:26:52.369Z,11.59
2022-11-29T21:31:54.059Z,11.70
2022-11-29T21:36:57.142Z,11.69
2022-11-29T21:41:58.459Z,11.73
2022-11-29T21:46:59.922Z,11.61
2022-11-29T21:52:01.388Z,11.67
2022-11-29T21:57:02.872Z,11.63
2022-11-29T22:02:04.475Z,11.60
2022-11-29T22:07:05.994Z,11.50
2022-11-29T22:12:32.041Z,11.55
2022-11-29T22:17:28.903Z,11.65
2022-11-29T22:22:30.357Z,11.62
2022-11-29T22:27:31.824Z,11.63
2022-11-29T22:32:34.355Z,11.66
2022-11-29T22:37:35.816Z,11.77
2022-11-29T22:42:37.320Z,11.83
2022-11-29T22:47:38.806Z,11.92
2022-11-29T22:52:40.270Z,11.87
2022-11-29T22:57:41.728Z,11.81
2022-11-29T23:02:43.194Z,11.50
2022-11-29T23:07:46.965Z,11.60
2022-11-29T23:12:48.436Z,11.63
2022-11-29T23:17:49.909Z,11.68
2022-11-29T23:22:51.371Z,11.72
2022-11-29T23:27:54.205Z,11.51
2022-11-29T23:32:55.681Z,11.56
2022-11-29T23:37:57.126Z,11.33
2022-11-29T23:42:58.596Z,11.68
2022-11-29T23:48:00.100Z,11.67
2022-11-29T23:53:01.557Z,11.64
2022-11-29T23:58:03.268Z,11.47
